createdAt,value
2019-03-05T00:01:10.921Z,98669.25
2019-03-05T00:03:39.259Z,98661.23
2019-03-05T00:06:07.645Z,98668.41
2019-03-05T00:08:36.033Z,98672.68
2019-03-05T00:11:06.145Z,98667.20
2019-03-05T00:13:34.529Z,98675.06
2019-03-05T00:16:02.927Z,98671.25
2019-03-05T00:18:31.316Z,98677.81
2019-03-05T00:20:59.722Z,98669.92
2019-03-05T00:23:34.098Z,98674.48
2019-03-05T00:26:02.502Z,98679.61
2019-03-05T00:28:52.267Z,98674.48
2019-03-05T00:31:29.985Z,98680.30
2019-03-05T00:34:31.771Z,98686.86
2019-03-05T00:37:09.048Z,98689.00
2019-03-05T00:39:49.306Z,98686.86
2019-03-05T00:42:54.169Z,98684.14
2019-03-05T00:45:43.738Z,98689.86
2019-03-05T00:48:47.969Z,98690.69
2019-03-05T00:51:46.622Z,98690.70
2019-03-05T00:54:34.814Z,98694.12
2019-03-05T00:57:08.898Z,98688.27
2019-03-05T00:59:40.347Z,98692.09
2019-03-05T01:02:17.482Z,98693.89
2019-03-05T01:05:03.834Z,98700.70
2019-03-05T01:07:32.248Z,98708.60
2019-03-05T01:10:00.631Z,98710.88
2019-03-05T01:12:29.091Z,98707.42
2019-03-05T01:14:59.261Z,98715.51
2019-03-05T01:17:27.645Z,98713.16
2019-03-05T01:19:56.040Z,98716.13
2019-03-05T01:22:24.728Z,98719.82
2019-03-05T01:24:53.119Z,98715.41
2019-03-05T01:27:21.518Z,98724.01
2019-03-05T01:29:49.907Z,98720.89
2019-03-05T01:32:20.836Z,98719.34
2019-03-05T01:35:07.074Z,98729.84
2019-03-05T01:37:35.475Z,98729.48
2019-03-05T01:40:06.442Z,98733.18
2019-03-05T01:42:34.943Z,98725.79
2019-03-05T01:45:04.513Z,98728.41
2019-03-05T01:47:33.021Z,98734.36
2019-03-05T01:50:01.528Z,98734.25
2019-03-05T01:52:29.984Z,98737.47
2019-03-05T01:54:58.373Z,98741.16
2019-03-05T01:57:26.784Z,98730.91
2019-03-05T01:59:55.184Z,98736.16
2019-03-05T02:02:23.582Z,98733.50
2019-03-05T02:04:52.062Z,98740.05
2019-03-05T02:07:20.536Z,98731.45
2019-03-05T02:09:48.927Z,98733.00
2019-03-05T02:12:17.326Z,98729.55
2019-03-05T02:14:45.715Z,98735.77
2019-03-05T02:17:14.117Z,98733.69
2019-03-05T02:19:44.547Z,98775.78
2019-03-05T02:22:25.255Z,98746.10
2019-03-05T02:25:02.043Z,98748.70
2019-03-05T02:27:52.841Z,98750.55
2019-03-05T02:30:24.281Z,98747.96
2019-03-05T02:33:12.616Z,98752.60
2019-03-05T02:35:56.140Z,98754.81
2019-03-05T02:38:33.488Z,98750.42
2019-03-05T02:41:13.854Z,98735.80
2019-03-05T02:43:57.164Z,98737.36
2019-03-05T02:46:40.377Z,98740.66
2019-03-05T02:49:17.859Z,98780.09
2019-03-05T02:52:04.353Z,98770.64
2019-03-05T02:54:50.970Z,98770.73
2019-03-05T02:57:18.511Z,98767.11
2019-03-05T02:59:46.903Z,98763.34
2019-03-05T03:02:32.083Z,98758.11
2019-03-05T03:05:05.060Z,98761.88
2019-03-05T03:07:33.488Z,98768.67
2019-03-05T03:12:49.792Z,98765.13
2019-03-05T03:15:58.088Z,98768.80
2019-03-05T03:18:26.494Z,98777.28
2019-03-05T03:20:54.884Z,98780.13
2019-03-05T03:23:42.544Z,98779.40
2019-03-05T03:26:10.927Z,98778.11
2019-03-05T03:28:58.665Z,98775.11
2019-03-05T03:31:46.310Z,98784.62
2019-03-05T03:34:14.838Z,98784.73
2019-03-05T03:39:32.267Z,98788.71
2019-03-05T03:42:00.665Z,98798.38
2019-03-05T03:44:29.071Z,98797.17
2019-03-05T03:46:57.466Z,98800.39
2019-03-05T03:49:45.116Z,98797.56
2019-03-05T03:52:32.760Z,98802.31
2019-03-05T03:55:20.408Z,98810.45
2019-03-05T03:58:28.724Z,98804.82
2019-03-05T04:01:16.369Z,98809.13
2019-03-05T04:03:44.767Z,98803.98
2019-03-05T04:06:13.154Z,98815.02
2019-03-05T04:08:41.560Z,98808.55
2019-03-05T04:11:29.186Z,98813.16
2019-03-05T04:14:16.709Z,98817.25
2019-03-05T04:17:04.358Z,98824.37
2019-03-05T04:22:11.498Z,98817.91
2019-03-05T04:24:39.900Z,98813.59
2019-03-05T04:27:27.646Z,98824.70
2019-03-05T04:29:56.050Z,98818.66
2019-03-05T04:32:43.687Z,98819.95
2019-03-05T04:35:52.002Z,98821.91
2019-03-05T04:38:39.519Z,98815.02
2019-03-05T04:41:07.917Z,98823.80
2019-03-05T04:43:36.317Z,98831.56
2019-03-05T04:54:08.549Z,98839.27
2019-03-05T04:56:36.944Z,98843.52
2019-03-05T04:59:24.469Z,98838.60
2019-03-05T05:01:52.858Z,98842.50
2019-03-05T05:04:40.508Z,98845.44
2019-03-05T05:07:28.138Z,98847.52
2019-03-05T05:09:56.535Z,98857.67
2019-03-05T05:12:24.926Z,98850.06
2019-03-05T05:14:53.334Z,98869.69
2019-03-05T05:17:40.857Z,98851.09
2019-03-05T05:20:09.259Z,98872.91
2019-03-05T05:22:37.654Z,98875.50
2019-03-05T05:25:25.460Z,98865.91
2019-03-05T05:28:33.775Z,98891.04
2019-03-05T05:33:35.909Z,98899.59
2019-03-05T05:41:12.645Z,98916.75
2019-03-05T05:43:41.034Z,98919.21
2019-03-05T05:46:11.167Z,98921.19
2019-03-05T05:48:58.689Z,98930.67
2019-03-05T05:51:46.336Z,98925.54
2019-03-05T05:54:14.736Z,98942.23
2019-03-05T05:59:49.943Z,98940.77
2019-03-05T06:02:37.459Z,98944.31
2019-03-05T06:05:45.789Z,98951.58
2019-03-05T06:08:33.428Z,98955.05
2019-03-05T06:11:21.092Z,98955.41
2019-03-05T06:13:49.494Z,98972.04
2019-03-05T06:16:17.940Z,98948.11
2019-03-05T06:19:05.474Z,98953.81
2019-03-05T06:21:53.136Z,98948.05
2019-03-05T06:27:08.982Z,98953.43
2019-03-05T06:29:37.380Z,98964.78
2019-03-05T06:32:05.781Z,98969.23
2019-03-05T06:34:34.175Z,98971.02
2019-03-05T06:37:02.569Z,98977.44
2019-03-05T06:39:30.959Z,98981.75
2019-03-05T06:42:18.480Z,98987.77
2019-03-05T06:47:21.211Z,98988.88
2019-03-05T06:49:49.611Z,98991.23
2019-03-05T06:52:18.003Z,99000.09
2019-03-05T06:55:05.658Z,99007.52
2019-03-05T06:57:34.053Z,99007.88
2019-03-05T07:02:57.086Z,99007.05
2019-03-05T07:06:04.175Z,99009.19
2019-03-05T07:08:32.566Z,99006.51
2019-03-05T07:11:40.874Z,99016.09
2019-03-05T07:14:49.179Z,99014.98
2019-03-05T07:17:56.166Z,99015.40
2019-03-05T07:21:04.486Z,99016.36
2019-03-05T07:24:11.704Z,99018.33
2019-03-05T07:26:40.107Z,99027.23
2019-03-05T07:29:27.765Z,99019.28
2019-03-05T07:31:56.170Z,99027.45
2019-03-05T07:37:53.560Z,99031.77
2019-03-05T07:40:41.189Z,99038.55
2019-03-05T07:43:09.584Z,99042.47
2019-03-05T07:45:57.217Z,99053.93
2019-03-05T07:48:25.621Z,99052.30
2019-03-05T07:51:13.345Z,99055.99
2019-03-05T07:54:01.006Z,99062.83
2019-03-05T07:56:48.643Z,99076.46
2019-03-05T07:59:36.290Z,99073.64
2019-03-05T08:04:58.948Z,99081.06
2019-03-05T08:07:27.361Z,99084.68
2019-03-05T08:10:34.337Z,99088.73
2019-03-05T08:13:42.652Z,99088.64
2019-03-05T08:16:30.163Z,99100.83
2019-03-05T08:18:58.570Z,99096.02
2019-03-05T08:21:26.960Z,99110.95
2019-03-05T08:24:35.282Z,99112.02
2019-03-05T08:27:03.673Z,99118.59
2019-03-05T08:29:51.571Z,99124.67
2019-03-05T08:37:29.542Z,99129.36
2019-03-05T08:50:49.091Z,99164.17
2019-03-05T08:53:17.496Z,99157.41
2019-03-05T08:55:45.885Z,99174.84
2019-03-05T08:58:54.195Z,99167.94
2019-03-05T09:01:22.587Z,99176.16
2019-03-05T09:04:10.239Z,99185.48
2019-03-05T09:06:38.625Z,99187.06
2019-03-05T09:09:46.956Z,99197.69
2019-03-05T09:12:15.342Z,99188.03
2019-03-05T09:14:43.743Z,99174.86
2019-03-05T09:17:32.918Z,99190.72
2019-03-05T09:20:01.323Z,99188.71
2019-03-05T09:22:29.713Z,99182.67
2019-03-05T09:24:58.218Z,99201.82
2019-03-05T09:27:26.601Z,99189.89
2019-03-05T09:30:14.245Z,99185.44
2019-03-05T09:32:42.635Z,99184.89
2019-03-05T09:35:51.200Z,99171.78
2019-03-05T09:38:38.714Z,99177.84
2019-03-05T09:41:07.107Z,99181.20
2019-03-05T09:43:54.754Z,99190.09
2019-03-05T09:46:23.144Z,99186.04
2019-03-05T09:49:10.785Z,99180.15
2019-03-05T09:51:58.294Z,99188.03
2019-03-05T09:54:26.705Z,99188.40
2019-03-05T09:57:14.329Z,99196.05
2019-03-05T10:00:01.853Z,99197.30
2019-03-05T10:05:59.233Z,99201.42
2019-03-05T10:08:32.451Z,99214.98
2019-03-05T10:11:37.655Z,99206.77
2019-03-05T10:14:06.092Z,99205.20
2019-03-05T10:16:34.487Z,99215.39
2019-03-05T10:19:04.533Z,99210.20
2019-03-05T10:24:20.443Z,99221.89
2019-03-05T10:27:07.950Z,99227.62
2019-03-05T10:29:36.345Z,99220.63
2019-03-05T10:32:23.857Z,99229.57
2019-03-05T10:34:52.254Z,99226.45
2019-03-05T10:41:08.627Z,99224.78
2019-03-05T10:44:16.942Z,99230.17
2019-03-05T10:47:25.239Z,99232.93
2019-03-05T10:50:33.556Z,99243.22
2019-03-05T10:53:01.951Z,99244.38
2019-03-05T10:56:10.253Z,99243.91
2019-03-05T10:58:38.644Z,99235.16
2019-03-05T11:01:26.382Z,99244.85
2019-03-05T11:03:54.771Z,99247.16
2019-03-05T11:06:23.174Z,99241.80
2019-03-05T11:09:31.520Z,99259.28
2019-03-05T11:12:39.889Z,99247.37
2019-03-05T11:15:48.219Z,99262.34
2019-03-05T11:21:43.857Z,99264.20
2019-03-05T11:26:59.680Z,99261.55
2019-03-05T11:32:34.633Z,99276.41
2019-03-05T11:38:11.089Z,99281.75
2019-03-05T11:41:19.405Z,99283.21
2019-03-05T11:44:07.110Z,99286.51
2019-03-05T11:46:35.516Z,99277.37
2019-03-05T11:49:23.161Z,99279.19
2019-03-05T11:54:25.788Z,99284.79
2019-03-05T11:56:54.185Z,99267.42
2019-03-05T11:59:41.823Z,99294.11
2019-03-05T12:02:29.346Z,99296.58
2019-03-05T12:04:57.735Z,99296.58
2019-03-05T12:07:46.203Z,99310.25
2019-03-05T12:10:34.912Z,99305.24
2019-03-05T12:13:03.326Z,99311.98
2019-03-05T12:16:11.670Z,99312.09
2019-03-05T12:18:40.077Z,99317.94
2019-03-05T12:21:27.746Z,99314.20
2019-03-05T12:24:15.395Z,99325.45
2019-03-05T12:26:43.802Z,99322.52
2019-03-05T12:29:31.534Z,99331.00
2019-03-05T12:32:19.203Z,99327.34
2019-03-05T12:34:47.599Z,99337.12
2019-03-05T12:40:09.080Z,99338.33
2019-03-05T12:42:56.715Z,99339.95
2019-03-05T12:46:05.044Z,99345.44
2019-03-05T12:54:02.308Z,99342.97
2019-03-05T12:56:49.841Z,99350.87
2019-03-05T12:59:18.251Z,99347.51
2019-03-05T13:02:05.915Z,99351.98
2019-03-05T13:04:34.337Z,99352.34
2019-03-05T13:07:22.000Z,99351.38
2019-03-05T13:09:52.580Z,99361.07
2019-03-05T13:12:20.547Z,99367.30
2019-03-05T13:14:48.974Z,99371.74
2019-03-05T13:17:17.373Z,99388.50
2019-03-05T13:19:47.907Z,99391.56
2019-03-05T13:24:50.314Z,99397.42
2019-03-05T13:27:22.834Z,99391.89
2019-03-05T13:29:50.588Z,99380.59
2019-03-05T13:32:39.260Z,99388.06
2019-03-05T13:35:47.568Z,99392.05
2019-03-05T13:38:15.969Z,99396.54
2019-03-05T13:40:44.373Z,99398.89
2019-03-05T13:43:12.861Z,99401.20
2019-03-05T13:45:43.922Z,99407.70
2019-03-05T13:48:58.040Z,99407.55
2019-03-05T13:52:00.708Z,99417.20
2019-03-05T13:55:08.871Z,99423.35
2019-03-05T13:58:17.197Z,99426.45
2019-03-05T14:07:43.311Z,99433.08
2019-03-05T14:10:51.640Z,99441.73
2019-03-05T14:19:09.299Z,99446.06
2019-03-05T14:21:37.709Z,99454.72
2019-03-05T14:24:06.081Z,99447.52
2019-03-05T14:29:41.249Z,99469.59
2019-03-05T14:32:49.584Z,99485.34
2019-03-05T14:35:57.872Z,99466.64
2019-03-05T14:38:45.549Z,99482.59
2019-03-05T14:41:33.302Z,99477.06
2019-03-05T14:44:01.711Z,99478.42
2019-03-05T14:49:38.172Z,99486.67
2019-03-05T14:52:46.496Z,99493.66
2019-03-05T14:55:54.795Z,99493.24
2019-03-05T14:58:23.261Z,99499.72
2019-03-05T15:04:20.665Z,99497.19
2019-03-05T15:06:49.963Z,99506.08
2019-03-05T15:09:38.278Z,99507.09
2019-03-05T15:12:06.656Z,99503.97
2019-03-05T15:14:35.138Z,99507.09
2019-03-05T15:17:03.552Z,99504.91
2019-03-05T15:19:51.496Z,99520.63
2019-03-05T15:22:39.432Z,99510.71
2019-03-05T15:25:47.749Z,99521.48
2019-03-05T15:28:16.155Z,99522.22
2019-03-05T15:31:24.478Z,99527.22
2019-03-05T15:33:52.884Z,99535.33
2019-03-05T15:36:23.904Z,99534.39
2019-03-05T15:39:10.499Z,99545.63
2019-03-05T15:41:58.244Z,99546.98
2019-03-05T15:44:45.748Z,99544.16
2019-03-05T15:47:33.550Z,99550.22
2019-03-05T15:53:17.111Z,99554.81
2019-03-05T15:55:45.461Z,99552.80
2019-03-05T15:58:33.269Z,99552.22
2019-03-05T16:01:22.587Z,99552.58
2019-03-05T16:04:10.854Z,99553.78
2019-03-05T16:09:46.160Z,99567.06
2019-03-05T16:12:14.887Z,99566.96
2019-03-05T16:15:05.200Z,99569.03
2019-03-05T16:17:32.739Z,99578.75
2019-03-05T16:20:01.430Z,99578.12
2019-03-05T16:22:51.058Z,99580.05
2019-03-05T16:25:59.395Z,99584.59
2019-03-05T16:28:47.028Z,99586.08
2019-03-05T16:34:29.699Z,99592.49
2019-03-05T16:37:17.207Z,99597.63
2019-03-05T16:45:18.466Z,99614.33
2019-03-05T16:48:06.089Z,99615.44
2019-03-05T16:50:53.863Z,99617.95
2019-03-05T16:53:41.372Z,99628.55
2019-03-05T16:59:43.040Z,99636.00
2019-03-05T17:02:30.567Z,99635.20
2019-03-05T17:07:53.484Z,99650.36
2019-03-05T17:13:16.882Z,99663.61
2019-03-05T17:15:45.276Z,99667.41
2019-03-05T17:18:32.919Z,99673.81
2019-03-05T17:21:41.247Z,99668.86
2019-03-05T17:24:49.552Z,99675.62
2019-03-05T17:27:17.942Z,99683.86
2019-03-05T17:29:46.325Z,99684.83
2019-03-05T17:35:48.935Z,99695.34
2019-03-05T17:38:36.438Z,99701.75
2019-03-05T17:41:44.765Z,99705.25
2019-03-05T17:44:13.154Z,99713.23
2019-03-05T17:47:00.801Z,99711.73
2019-03-05T17:52:16.631Z,99723.84
2019-03-05T17:55:04.272Z,99732.00
2019-03-05T17:57:32.670Z,99733.97
2019-03-05T18:03:09.683Z,99738.06
2019-03-05T18:05:38.092Z,99748.48
2019-03-05T18:08:08.235Z,99753.27
2019-03-05T18:10:55.851Z,99747.88
2019-03-05T18:13:43.491Z,99757.28
2019-03-05T18:16:31.019Z,99762.54
2019-03-05T18:18:59.400Z,99765.25
2019-03-05T18:24:21.208Z,99774.72
2019-03-05T18:26:49.611Z,99778.94
2019-03-05T18:29:37.126Z,99776.34
2019-03-05T18:32:24.808Z,99786.94
2019-03-05T18:35:12.483Z,99787.32
2019-03-05T18:37:40.951Z,99791.45
2019-03-05T18:40:49.264Z,99793.03
2019-03-05T18:43:36.915Z,99793.22
2019-03-05T18:46:24.571Z,99802.42
2019-03-05T18:49:12.205Z,99803.73
2019-03-05T18:51:59.851Z,99810.47
2019-03-05T18:54:47.494Z,99813.13
2019-03-05T18:57:35.547Z,99813.95
2019-03-05T19:00:44.605Z,99818.37
2019-03-05T19:03:32.347Z,99818.27
2019-03-05T19:06:19.994Z,99826.42
2019-03-05T19:08:48.733Z,99832.06
2019-03-05T19:14:11.695Z,99830.55
2019-03-05T19:16:40.090Z,99840.23
2019-03-05T19:19:10.211Z,99838.35
2019-03-05T19:21:38.610Z,99839.66
2019-03-05T19:24:26.132Z,99844.05
2019-03-05T19:26:54.524Z,99839.20
2019-03-05T19:29:22.917Z,99855.80
2019-03-05T19:31:51.315Z,99852.14
2019-03-05T19:34:38.984Z,99857.67
2019-03-05T19:37:07.383Z,99855.13
2019-03-05T19:39:55.021Z,99857.77
2019-03-05T19:42:42.675Z,99863.22
2019-03-05T19:50:51.803Z,99870.89
2019-03-05T19:53:39.328Z,99873.70
2019-03-05T19:56:07.712Z,99873.72
2019-03-05T20:04:25.790Z,99883.73
2019-03-05T20:07:13.346Z,99880.34
2019-03-05T20:12:31.226Z,99883.59
2019-03-05T20:15:18.497Z,99884.98
2019-03-05T20:17:48.619Z,99883.00
2019-03-05T20:20:56.918Z,99889.84
2019-03-05T20:23:44.647Z,99888.83
2019-03-05T20:26:13.041Z,99890.30
2019-03-05T20:28:41.789Z,99891.53
2019-03-05T20:31:10.177Z,99897.36
2019-03-05T20:36:12.885Z,99897.59
2019-03-05T20:38:53.786Z,99904.70
2019-03-05T20:41:22.183Z,99911.08
2019-03-05T20:44:09.835Z,99901.39
2019-03-05T20:46:57.346Z,99901.02
2019-03-05T20:49:44.941Z,99906.89
2019-03-05T20:55:00.772Z,99912.92
2019-03-05T20:57:29.171Z,99922.14
2019-03-05T20:59:57.585Z,99923.55
2019-03-05T21:02:25.992Z,99924.69
2019-03-05T21:05:13.493Z,99933.80
2019-03-05T21:08:01.043Z,99937.44
2019-03-05T21:10:48.684Z,99937.01
2019-03-05T21:13:36.332Z,99933.18
2019-03-05T21:16:24.064Z,99937.20
2019-03-05T21:18:52.478Z,99938.50
2019-03-05T21:21:40.115Z,99942.58
2019-03-05T21:24:08.525Z,99942.20
2019-03-05T21:26:38.642Z,99949.24
2019-03-05T21:29:26.291Z,99944.28
2019-03-05T21:31:54.681Z,99948.52
2019-03-05T21:34:42.193Z,99948.16
2019-03-05T21:40:44.681Z,99955.26
2019-03-05T21:43:13.080Z,99952.62
2019-03-05T21:46:21.384Z,99957.39
2019-03-05T21:48:49.781Z,99958.97
2019-03-05T21:51:37.422Z,99956.25
2019-03-05T21:54:25.149Z,99961.59
2019-03-05T21:57:12.785Z,99957.36
2019-03-05T22:00:00.434Z,99972.03
2019-03-05T22:02:28.828Z,99976.89
2019-03-05T22:04:58.951Z,99980.87
2019-03-05T22:10:54.702Z,99981.64
2019-03-05T22:13:23.106Z,99977.17
2019-03-05T22:15:51.484Z,99978.55
2019-03-05T22:18:39.003Z,99978.86
2019-03-05T22:21:26.509Z,99982.55
2019-03-05T22:23:54.911Z,99978.45
2019-03-05T22:26:25.029Z,99982.16
2019-03-05T22:28:53.425Z,99981.31
2019-03-05T22:31:41.169Z,99981.31
2019-03-05T22:34:09.570Z,99975.50
2019-03-05T22:36:37.963Z,99976.45
2019-03-05T22:39:46.281Z,99975.91
2019-03-05T22:42:33.791Z,99975.19
2019-03-05T22:45:02.192Z,99980.55
2019-03-05T22:47:49.745Z,99990.55
2019-03-05T22:50:58.023Z,99988.55
2019-03-05T22:56:21.789Z,99992.25
2019-03-05T22:58:50.191Z,99991.70
2019-03-05T23:02:00.218Z,100000.11
2019-03-05T23:05:08.536Z,100004.41
2019-03-05T23:07:56.346Z,100003.99
2019-03-05T23:10:24.747Z,99997.17
2019-03-05T23:13:33.064Z,100006.58
2019-03-05T23:16:43.097Z,100006.55
2019-03-05T23:19:11.503Z,100012.87
2019-03-05T23:22:19.884Z,100015.33
2019-03-05T23:24:48.292Z,100014.79
2019-03-05T23:27:18.414Z,100010.70
2019-03-05T23:30:06.064Z,100010.86
2019-03-05T23:32:34.465Z,100010.54
2019-03-05T23:37:36.611Z,100013.84
2019-03-05T23:40:44.922Z,100009.78
2019-03-05T23:43:13.316Z,100015.40
2019-03-05T23:48:54.414Z,100017.86
2019-03-05T23:51:22.813Z,100021.55
2019-03-05T23:54:10.469Z,100021.88
2019-03-05T23:56:40.578Z,100024.33
2019-03-05T23:59:08.978Z,100020.94
